Time;durP1;ratioP1;P1;durP2;ratioP2;P2;SDS_P1;SDS_P2;PMS_P1;PMS_P2;Temp;Humidity;BMP_temperature;BMP_pressure;BME280_temperature;BME280_humidity;BME280_pressure;Samples;Min_cycle;Max_cycle;Signal;HPM_P1;HPM_P2
2021/07/09 00:02:41;;;;;;;;;;;;;;;16.65;93.00;101741.00;4970202;28;19924;-75
2021/07/09 00:05:06;;;;;;;;;;;;;;;16.65;93.18;101749.09;4970263;28;20342;-75
2021/07/09 00:07:32;;;;;;;;;;;;;;;16.66;93.18;101745.38;4969932;28;20336;-74
2021/07/09 00:09:57;;;;;;;;;;;;;;;16.66;93.37;101748.06;4971122;28;19914;-75
2021/07/09 00:12:22;;;;;;;;;;;;;;;16.68;93.08;101741.47;4971058;28;20293;-75
2021/07/09 00:14:47;;;;;;;;;;;;;;;16.70;93.02;101740.47;4971128;28;20028;-75
2021/07/09 00:17:13;;;;;;;;;;;;;;;16.66;92.91;101739.97;4969799;28;19918;-75
2021/07/09 00:19:38;;;;;;;;;;;;;;;16.71;92.31;101739.44;4970958;28;20335;-75
2021/07/09 00:22:03;;;;;;;;;;;;;;;16.69;92.57;101734.22;4970589;28;20406;-74
2021/07/09 00:24:29;;;;;;;;;;;;;;;16.55;92.53;101735.84;4970798;28;19913;-75
2021/07/09 00:26:55;;;;;;;;;;;;;;;16.46;92.83;101742.28;4969503;28;19918;-75
2021/07/09 00:29:20;;;;;;;;;;;;;;;16.38;92.76;101737.78;4969769;28;20403;-75
2021/07/09 00:31:45;;;;;;;;;;;;;;;16.30;92.93;101740.53;4970647;28;20028;-75
2021/07/09 00:34:10;;;;;;;;;;;;;;;16.28;93.32;101736.31;4969877;28;20327;-75
2021/07/09 00:36:36;;;;;;;;;;;;;;;16.19;93.06;101746.28;4970437;28;19986;-75
2021/07/09 00:39:06;;;;;;;;;;;;;;;16.15;93.33;101742.25;4970704;28;20020;-75
2021/07/09 00:41:31;;;;;;;;;;;;;;;16.06;93.33;101740.63;4969579;28;20255;-75
2021/07/09 00:43:57;;;;;;;;;;;;;;;16.01;93.81;101735.75;4953618;28;19920;-75
2021/07/09 00:46:29;;;;;;;;;;;;;;;15.91;93.70;101729.75;4969335;28;19928;-75
2021/07/09 00:48:54;;;;;;;;;;;;;;;15.88;94.34;101735.47;4969551;28;19963;-75
2021/07/09 00:51:19;;;;;;;;;;;;;;;15.89;94.08;101743.38;4969705;28;20251;-75
2021/07/09 00:53:44;;;;;;;;;;;;;;;15.91;94.33;101735.13;4969606;28;19914;-75
2021/07/09 00:56:10;;;;;;;;;;;;;;;15.91;94.38;101722.50;4969332;28;19985;-75
2021/07/09 00:58:35;;;;;;;;;;;;;;;15.99;94.32;101722.47;4969421;28;19918;-75
2021/07/09 01:01:00;;;;;;;;;;;;;;;16.01;94.29;101731.22;4969338;28;20012;-75
2021/07/09 01:03:25;;;;;;;;;;;;;;;16.06;94.27;101724.44;4970311;28;19918;-75
2021/07/09 01:05:51;;;;;;;;;;;;;;;15.99;94.31;101735.94;4969130;28;20013;-74
2021/07/09 01:08:18;;;;;;;;;;;;;;;16.01;94.47;101730.38;4970137;28;19937;-74
2021/07/09 01:10:43;;;;;;;;;;;;;;;15.94;94.15;101732.91;4969371;28;20254;-75
2021/07/09 01:13:09;;;;;;;;;;;;;;;15.97;94.50;101739.81;4953238;28;20012;-75
2021/07/09 01:15:34;;;;;;;;;;;;;;;15.98;94.40;101738.81;4969175;28;19926;-75
2021/07/09 01:18:00;;;;;;;;;;;;;;;16.02;95.02;101724.81;4969870;28;20043;-75
2021/07/09 01:20:26;;;;;;;;;;;;;;;16.00;94.82;101734.91;4970141;28;20048;-75
2021/07/09 01:22:51;;;;;;;;;;;;;;;16.01;94.88;101731.22;4969107;28;19925;-75
2021/07/09 01:25:27;;;;;;;;;;;;;;;16.02;94.28;101730.19;4970148;28;19924;-74
2021/07/09 01:27:57;;;;;;;;;;;;;;;16.06;94.15;101732.53;4952573;28;20013;-75
2021/07/09 01:30:23;;;;;;;;;;;;;;;16.03;94.51;101737.25;4969061;28;20328;-75
2021/07/09 01:32:49;;;;;;;;;;;;;;;15.99;94.27;101725.16;4969928;28;19940;-75
2021/07/09 01:35:15;;;;;;;;;;;;;;;15.95;94.44;101728.38;4971911;28;19914;-75
2021/07/09 01:37:40;;;;;;;;;;;;;;;15.93;94.27;101722.31;4973030;28;19971;-75
2021/07/09 01:40:07;;;;;;;;;;;;;;;15.89;94.41;101718.28;4972428;28;20291;-75
2021/07/09 01:42:33;;;;;;;;;;;;;;;15.86;94.53;101711.41;4972217;28;19914;-75
2021/07/09 01:44:58;;;;;;;;;;;;;;;15.85;94.44;101708.88;4973208;28;19970;-75
2021/07/09 01:47:23;;;;;;;;;;;;;;;15.87;94.85;101707.69;4972033;28;19918;-75
2021/07/09 01:49:53;;;;;;;;;;;;;;;15.86;94.41;101710.56;4973202;28;19924;-74
2021/07/09 01:52:18;;;;;;;;;;;;;;;15.81;94.33;101713.78;4973286;28;19914;-74
2021/07/09 01:54:43;;;;;;;;;;;;;;;15.83;95.04;101717.16;4972296;28;20358;-75
2021/07/09 01:57:09;;;;;;;;;;;;;;;15.85;94.74;101715.13;4971852;28;20329;-75
2021/07/09 01:59:34;;;;;;;;;;;;;;;15.85;94.78;101708.88;4973019;28;19922;-75
2021/07/09 02:02:00;;;;;;;;;;;;;;;15.83;94.62;101701.00;4972071;28;20053;-74
2021/07/09 02:04:25;;;;;;;;;;;;;;;15.83;95.12;101703.69;4973015;28;20412;-75
2021/07/09 02:06:50;;;;;;;;;;;;;;;15.78;94.73;101704.22;4971621;28;19922;-75
2021/07/09 02:09:15;;;;;;;;;;;;;;;15.75;94.69;101707.22;4955831;28;19918;-75
2021/07/09 02:11:41;;;;;;;;;;;;;;;15.74;94.89;101707.41;4972012;28;19924;-74
2021/07/09 02:14:06;;;;;;;;;;;;;;;15.74;95.04;101713.63;4972814;28;19944;-74
2021/07/09 02:16:31;;;;;;;;;;;;;;;15.74;95.50;101715.50;4971584;28;20012;-75
2021/07/09 02:18:56;;;;;;;;;;;;;;;15.73;95.05;101711.09;4971820;28;20262;-74
2021/07/09 02:21:21;;;;;;;;;;;;;;;15.72;95.03;101709.44;4971793;28;19964;-74
2021/07/09 02:23:47;;;;;;;;;;;;;;;15.71;95.17;101714.00;4972712;28;19914;-74
2021/07/09 02:26:12;;;;;;;;;;;;;;;15.67;94.83;101703.72;4972161;28;19918;-75
2021/07/09 02:28:37;;;;;;;;;;;;;;;15.65;94.87;101708.41;4972586;28;19914;-75
2021/07/09 02:31:03;;;;;;;;;;;;;;;15.58;94.68;101709.09;4955626;28;19921;-75
2021/07/09 02:33:28;;;;;;;;;;;;;;;15.53;94.69;101711.47;4972505;28;19914;-75
2021/07/09 02:35:53;;;;;;;;;;;;;;;15.47;94.69;101705.94;4972368;28;20439;-75
2021/07/09 02:38:18;;;;;;;;;;;;;;;15.41;94.34;101697.53;4972337;28;19972;-75
2021/07/09 02:40:44;;;;;;;;;;;;;;;15.37;94.26;101689.97;4971430;28;19968;-74
2021/07/09 02:43:09;;;;;;;;;;;;;;;15.33;94.32;101702.91;4971342;28;19914;-74
2021/07/09 02:45:34;;;;;;;;;;;;;;;15.30;94.29;101710.50;4971471;28;20409;-74
2021/07/09 02:48:00;;;;;;;;;;;;;;;15.29;94.15;101717.75;4971622;28;19918;-74
2021/07/09 02:50:25;;;;;;;;;;;;;;;15.26;94.23;101707.28;4972319;28;19918;-74
2021/07/09 02:52:50;;;;;;;;;;;;;;;15.24;94.22;101705.78;4971190;28;19927;-74
2021/07/09 02:55:17;;;;;;;;;;;;;;;15.17;94.02;101706.50;4972158;28;19974;-74
2021/07/09 02:57:43;;;;;;;;;;;;;;;15.14;94.22;101712.19;4971918;28;19949;-75
2021/07/09 03:00:10;;;;;;;;;;;;;;;15.14;94.36;101705.97;4972227;28;19988;-74
2021/07/09 03:02:35;;;;;;;;;;;;;;;15.15;94.39;101702.28;4971144;28;19914;-74
2021/07/09 03:05:01;;;;;;;;;;;;;;;15.16;94.57;101696.72;4955078;28;19945;-74
2021/07/09 03:07:26;;;;;;;;;;;;;;;15.16;94.16;101699.41;4970849;28;19932;-74
2021/07/09 03:09:51;;;;;;;;;;;;;;;15.15;94.13;101697.75;4954929;28;19914;-74
2021/07/09 03:12:16;;;;;;;;;;;;;;;15.17;94.50;101698.41;4971934;28;20244;-74
2021/07/09 03:14:41;;;;;;;;;;;;;;;15.19;94.72;101700.91;4970962;28;19914;-74
2021/07/09 03:17:07;;;;;;;;;;;;;;;15.19;93.94;101693.72;4970710;28;19975;-74
2021/07/09 03:19:32;;;;;;;;;;;;;;;15.23;94.45;101685.28;4971830;28;19918;-74
2021/07/09 03:21:58;;;;;;;;;;;;;;;15.23;94.46;101675.38;4971699;28;19914;-74
2021/07/09 03:24:23;;;;;;;;;;;;;;;15.19;94.29;101677.56;4971726;28;19991;-74
2021/07/09 03:26:48;;;;;;;;;;;;;;;15.24;94.60;101674.38;4971315;28;19924;-74
2021/07/09 03:29:13;;;;;;;;;;;;;;;15.28;94.24;101686.44;4971862;28;19972;-75
2021/07/09 03:31:38;;;;;;;;;;;;;;;15.35;94.56;101682.06;4971075;28;19991;-74
2021/07/09 03:34:04;;;;;;;;;;;;;;;15.41;94.43;101675.19;4972034;28;19921;-75
2021/07/09 03:36:29;;;;;;;;;;;;;;;15.43;94.27;101678.53;4971318;28;20009;-74
2021/07/09 03:38:55;;;;;;;;;;;;;;;15.47;94.38;101674.47;4971525;28;19914;-74
2021/07/09 03:41:20;;;;;;;;;;;;;;;15.51;94.66;101681.19;4971396;28;20760;-74
2021/07/09 03:43:46;;;;;;;;;;;;;;;15.52;93.79;101682.88;4971545;28;19917;-74
2021/07/09 03:46:11;;;;;;;;;;;;;;;15.56;94.21;101684.19;4971023;28;20567;-74
2021/07/09 03:48:36;;;;;;;;;;;;;;;15.61;94.06;101681.81;4971452;28;19918;-74
2021/07/09 03:51:02;;;;;;;;;;;;;;;15.68;93.71;101695.44;4970450;28;19914;-74
2021/07/09 03:53:27;;;;;;;;;;;;;;;15.74;94.26;101694.78;4971248;28;19914;-74
2021/07/09 03:55:53;;;;;;;;;;;;;;;15.83;94.38;101684.84;4970875;28;19968;-74
2021/07/09 03:58:18;;;;;;;;;;;;;;;15.95;93.98;101686.13;4969748;28;19913;-74
2021/07/09 04:00:43;;;;;;;;;;;;;;;16.08;94.46;101687.41;4970323;28;20331;-74
2021/07/09 04:03:09;;;;;;;;;;;;;;;16.16;94.37;101685.53;4971165;28;20274;-74
2021/07/09 04:05:34;;;;;;;;;;;;;;;16.25;95.07;101689.03;4970283;28;19914;-74
2021/07/09 04:07:59;;;;;;;;;;;;;;;16.38;95.00;101683.03;4969814;28;19922;-74
2021/07/09 04:10:24;;;;;;;;;;;;;;;16.44;94.51;101676.94;4969959;28;20258;-74
2021/07/09 04:12:50;;;;;;;;;;;;;;;16.53;94.46;101667.78;4971048;28;19925;-74
2021/07/09 04:15:15;;;;;;;;;;;;;;;16.62;94.57;101671.25;4971008;28;19922;-74
2021/07/09 04:17:40;;;;;;;;;;;;;;;16.70;93.85;101671.19;4953727;28;20013;-74
2021/07/09 04:20:06;;;;;;;;;;;;;;;16.77;93.80;101661.38;4970078;28;19918;-74
2021/07/09 04:22:32;;;;;;;;;;;;;;;16.79;93.10;101653.97;4953900;28;19921;-74
2021/07/09 04:24:57;;;;;;;;;;;;;;;16.90;93.26;101662.63;4970762;28;19917;-74
2021/07/09 04:27:22;;;;;;;;;;;;;;;17.02;92.59;101653.94;4953458;28;19922;-74
2021/07/09 04:29:48;;;;;;;;;;;;;;;17.07;91.90;101648.81;4970700;28;19914;-74
2021/07/09 04:32:13;;;;;;;;;;;;;;;17.05;92.06;101641.94;4969858;28;19991;-74
2021/07/09 04:34:38;;;;;;;;;;;;;;;17.07;92.28;101639.91;4970764;28;19929;-74
2021/07/09 04:37:08;;;;;;;;;;;;;;;17.14;91.46;101631.88;4970328;28;19962;-74
2021/07/09 04:39:35;;;;;;;;;;;;;;;17.25;90.84;101637.66;4970628;28;19914;-74
2021/07/09 04:42:00;;;;;;;;;;;;;;;17.42;89.63;101638.34;4970435;28;19918;-74
2021/07/09 04:44:25;;;;;;;;;;;;;;;17.60;89.67;101626.31;4969618;28;19958;-74
2021/07/09 04:46:51;;;;;;;;;;;;;;;17.77;88.35;101625.09;4969379;28;19937;-74
2021/07/09 04:49:17;;;;;;;;;;;;;;;17.76;86.90;101628.81;4969748;28;19914;-74
2021/07/09 04:51:42;;;;;;;;;;;;;;;17.82;87.36;101627.28;4969488;28;19960;-74
2021/07/09 04:54:07;;;;;;;;;;;;;;;18.02;87.39;101633.72;4969545;28;19913;-75
2021/07/09 04:56:32;;;;;;;;;;;;;;;18.22;85.79;101633.13;4969984;28;20358;-74
2021/07/09 04:58:57;;;;;;;;;;;;;;;18.26;85.12;101634.41;4969398;28;20001;-74
2021/07/09 05:01:23;;;;;;;;;;;;;;;18.19;84.26;101623.53;4952970;28;20021;-75
2021/07/09 05:03:48;;;;;;;;;;;;;;;18.19;84.79;101628.09;4967806;28;19997;-74
2021/07/09 05:06:13;;;;;;;;;;;;;;;18.47;86.09;101630.88;4967441;28;19922;-74
2021/07/09 05:08:38;;;;;;;;;;;;;;;18.51;82.99;101635.69;4967062;28;20369;-75
2021/07/09 05:11:04;;;;;;;;;;;;;;;18.56;82.73;101635.94;4967339;28;20021;-74
2021/07/09 05:13:29;;;;;;;;;;;;;;;18.41;82.88;101640.59;4968660;28;19929;-74
2021/07/09 05:15:54;;;;;;;;;;;;;;;18.34;83.89;101653.22;4968348;28;20503;-75
2021/07/09 05:18:20;;;;;;;;;;;;;;;18.37;82.77;101649.28;4969683;28;20523;-75
2021/07/09 05:20:45;;;;;;;;;;;;;;;18.45;84.03;101650.00;4969137;28;19929;-74
2021/07/09 05:23:10;;;;;;;;;;;;;;;18.57;84.02;101642.22;4969941;28;19929;-75
2021/07/09 05:25:35;;;;;;;;;;;;;;;18.66;83.50;101651.03;4970101;28;20372;-75
2021/07/09 05:28:01;;;;;;;;;;;;;;;18.96;83.97;101644.47;4969675;28;19922;-75
2021/07/09 05:30:26;;;;;;;;;;;;;;;19.32;82.55;101646.16;4969077;28;19940;-76
2021/07/09 05:32:54;;;;;;;;;;;;;;;19.55;79.65;101634.19;4969787;28;19914;-75
2021/07/09 05:35:20;;;;;;;;;;;;;;;19.97;79.42;101640.47;4968986;28;20327;-75
2021/07/09 05:37:45;;;;;;;;;;;;;;;20.42;77.45;101635.38;4968450;28;19968;-75
2021/07/09 05:40:11;;;;;;;;;;;;;;;20.45;76.59;101643.09;4969815;28;19948;-75
2021/07/09 05:42:36;;;;;;;;;;;;;;;20.64;76.11;101645.03;4969740;28;19929;-75
2021/07/09 05:45:01;;;;;;;;;;;;;;;20.25;74.79;101643.06;4968870;28;19914;-76
2021/07/09 05:47:26;;;;;;;;;;;;;;;20.62;75.36;101651.72;4969437;28;19926;-76
2021/07/09 05:49:52;;;;;;;;;;;;;;;21.09;73.98;101641.69;4969863;28;19922;-75
2021/07/09 05:52:17;;;;;;;;;;;;;;;21.42;71.70;101636.25;4969618;28;19941;-75
2021/07/09 05:54:43;;;;;;;;;;;;;;;21.56;72.34;101641.63;4969631;28;19968;-75
2021/07/09 05:57:08;;;;;;;;;;;;;;;21.90;71.47;101638.56;4968428;28;19932;-75
2021/07/09 05:59:35;;;;;;;;;;;;;;;21.58;72.24;101644.97;4968668;28;19914;-76
2021/07/09 06:02:00;;;;;;;;;;;;;;;21.97;71.58;101640.44;4969589;28;19917;-75
2021/07/09 06:04:26;;;;;;;;;;;;;;;21.91;70.86;101640.25;4969568;28;19929;-75
2021/07/09 06:06:51;;;;;;;;;;;;;;;21.85;70.51;101641.09;4969114;28;20430;-75
2021/07/09 06:09:16;;;;;;;;;;;;;;;21.72;72.21;101641.16;4968393;28;19918;-75
2021/07/09 06:11:42;;;;;;;;;;;;;;;21.91;71.51;101637.53;4968557;28;19914;-76
2021/07/09 06:14:07;;;;;;;;;;;;;;;22.00;70.62;101635.38;4968709;28;19914;-75
2021/07/09 06:16:32;;;;;;;;;;;;;;;22.35;69.99;101635.00;4968282;28;20263;-75
2021/07/09 06:18:58;;;;;;;;;;;;;;;22.47;68.99;101622.34;4969383;28;19914;-75
2021/07/09 06:21:24;;;;;;;;;;;;;;;22.52;68.53;101629.84;4971360;28;19929;-75
2021/07/09 06:23:50;;;;;;;;;;;;;;;22.44;69.88;101619.25;4972483;28;19922;-75
2021/07/09 06:26:15;;;;;;;;;;;;;;;22.71;67.84;101622.59;4972295;28;19922;-76
2021/07/09 06:28:40;;;;;;;;;;;;;;;22.55;69.63;101624.00;4971752;28;19925;-75
2021/07/09 06:31:06;;;;;;;;;;;;;;;22.23;70.93;101623.16;4971642;28;19918;-75
2021/07/09 06:33:31;;;;;;;;;;;;;;;22.09;70.08;101630.53;4955428;28;19946;-75
2021/07/09 06:35:56;;;;;;;;;;;;;;;21.91;72.08;101625.81;4971334;28;20356;-75
2021/07/09 06:38:22;;;;;;;;;;;;;;;21.92;71.31;101620.16;4972199;28;20006;-75
2021/07/09 06:40:47;;;;;;;;;;;;;;;22.03;70.31;101631.38;4972458;28;19921;-75
2021/07/09 06:43:13;;;;;;;;;;;;;;;22.38;71.18;101628.28;4972258;28;20248;-75
2021/07/09 06:45:39;;;;;;;;;;;;;;;22.56;70.48;101620.22;4971448;28;19979;-75
2021/07/09 06:48:05;;;;;;;;;;;;;;;22.64;70.71;101608.22;4971938;28;20011;-75
2021/07/09 06:50:30;;;;;;;;;;;;;;;22.46;71.25;101617.16;4971404;28;20048;-75
2021/07/09 06:52:55;;;;;;;;;;;;;;;22.35;70.45;101618.69;4970305;28;20009;-75
2021/07/09 06:55:21;;;;;;;;;;;;;;;22.48;70.63;101620.50;4969649;28;19913;-75
2021/07/09 06:57:49;;;;;;;;;;;;;;;22.36;70.72;101608.63;4970272;28;19913;-75
2021/07/09 07:00:15;;;;;;;;;;;;;;;22.31;70.76;101607.44;4970519;28;19925;-75
2021/07/09 07:02:40;;;;;;;;;;;;;;;22.38;70.55;101601.09;4969366;28;20362;-75
2021/07/09 07:05:06;;;;;;;;;;;;;;;22.52;71.22;101605.38;4970536;28;19917;-75
2021/07/09 07:07:31;;;;;;;;;;;;;;;22.40;70.40;101602.53;4970198;28;19925;-75
2021/07/09 07:09:57;;;;;;;;;;;;;;;22.64;70.59;101600.91;4955003;28;20079;-75
2021/07/09 07:12:22;;;;;;;;;;;;;;;22.54;70.25;101595.94;4971009;28;20009;-75
2021/07/09 07:14:47;;;;;;;;;;;;;;;22.11;69.80;101595.81;4971883;28;19914;-75
2021/07/09 07:17:12;;;;;;;;;;;;;;;22.15;68.87;101588.88;4971581;28;19915;-75
2021/07/09 07:19:37;;;;;;;;;;;;;;;22.08;67.61;101580.75;4971896;28;20343;-76
2021/07/09 07:22:03;;;;;;;;;;;;;;;22.24;66.69;101589.47;4971601;28;19914;-75
2021/07/09 07:24:29;;;;;;;;;;;;;;;22.39;67.35;101587.28;4970904;28;19914;-75
2021/07/09 07:26:54;;;;;;;;;;;;;;;22.52;66.08;101584.47;4970609;28;19918;-75
2021/07/09 07:29:19;;;;;;;;;;;;;;;22.87;66.79;101588.53;4970901;28;19928;-75
2021/07/09 07:31:44;;;;;;;;;;;;;;;23.03;67.02;101585.28;4971191;28;20016;-76
2021/07/09 07:34:10;;;;;;;;;;;;;;;23.15;65.35;101585.34;4971504;28;19965;-75
2021/07/09 07:36:35;;;;;;;;;;;;;;;23.17;63.33;101589.50;4970199;28;19968;-75
2021/07/09 07:39:00;;;;;;;;;;;;;;;23.58;64.19;101593.47;4970670;28;19961;-76
2021/07/09 07:41:26;;;;;;;;;;;;;;;23.58;62.06;101595.34;4970497;28;19914;-75
2021/07/09 07:43:51;;;;;;;;;;;;;;;23.32;65.16;101599.19;4970549;28;19961;-75
2021/07/09 07:46:16;;;;;;;;;;;;;;;23.39;63.74;101597.25;4971063;28;19968;-75
2021/07/09 07:48:42;;;;;;;;;;;;;;;23.27;64.36;101604.50;4970342;28;19921;-75
2021/07/09 07:51:07;;;;;;;;;;;;;;;23.22;65.06;101615.25;4970208;28;19920;-75
2021/07/09 07:53:36;;;;;;;;;;;;;;;23.46;64.50;101605.34;4970429;28;19914;-75
2021/07/09 07:56:02;;;;;;;;;;;;;;;23.46;64.03;101603.47;4970917;28;19983;-75
2021/07/09 07:58:27;;;;;;;;;;;;;;;23.59;63.86;101607.91;4970266;28;20339;-75
2021/07/09 08:00:53;;;;;;;;;;;;;;;23.74;62.91;101605.66;4970370;28;19949;-75
2021/07/09 08:03:18;;;;;;;;;;;;;;;24.14;61.25;101599.66;4954275;28;20027;-75
2021/07/09 08:05:43;;;;;;;;;;;;;;;24.43;60.32;101603.41;4971007;28;20012;-75
2021/07/09 08:08:08;;;;;;;;;;;;;;;24.74;58.04;101598.72;4969922;28;20056;-75
2021/07/09 08:10:34;;;;;;;;;;;;;;;24.16;58.84;101602.16;4971091;28;20001;-75
2021/07/09 08:12:59;;;;;;;;;;;;;;;23.90;59.63;101614.25;4970124;28;20359;-75
2021/07/09 08:15:24;;;;;;;;;;;;;;;23.73;60.48;101611.31;4970169;28;20072;-73
2021/07/09 08:17:50;;;;;;;;;;;;;;;23.97;59.12;101604.91;4969688;28;19936;-73
2021/07/09 08:20:16;;;;;;;;;;;;;;;23.88;59.84;101609.06;4969830;28;20029;-73
2021/07/09 08:22:41;;;;;;;;;;;;;;;24.42;59.76;101606.41;4969917;28;19929;-73
2021/07/09 08:25:07;;;;;;;;;;;;;;;24.64;58.77;101607.50;4970826;28;19914;-73
2021/07/09 08:27:32;;;;;;;;;;;;;;;24.38;58.75;101606.00;4969564;28;19928;-73
2021/07/09 08:29:58;;;;;;;;;;;;;;;24.39;58.78;101612.28;4970765;28;19964;-74
2021/07/09 08:32:23;;;;;;;;;;;;;;;24.15;60.83;101614.13;4970665;28;19925;-73
2021/07/09 08:34:48;;;;;;;;;;;;;;;24.09;59.98;101606.88;4969795;28;19914;-73
2021/07/09 08:37:13;;;;;;;;;;;;;;;24.09;59.11;101623.22;4970356;28;20283;-73
2021/07/09 08:39:39;;;;;;;;;;;;;;;24.22;59.74;101614.88;4969821;28;19987;-74
2021/07/09 08:42:04;;;;;;;;;;;;;;;24.28;58.22;101621.28;4969687;28;19914;-74
2021/07/09 08:44:29;;;;;;;;;;;;;;;24.26;59.17;101618.81;4969589;28;20795;-74
2021/07/09 08:46:56;;;;;;;;;;;;;;;24.32;59.04;101617.84;4970217;28;19929;-74
2021/07/09 08:49:22;;;;;;;;;;;;;;;24.43;58.94;101618.97;4969549;28;20325;-74
2021/07/09 08:51:49;;;;;;;;;;;;;;;24.46;58.15;101613.03;4953380;28;19936;-74
2021/07/09 08:54:15;;;;;;;;;;;;;;;25.12;56.93;101624.75;4969482;28;19967;-74
2021/07/09 08:56:40;;;;;;;;;;;;;;;24.89;57.88;101622.00;4969155;28;19926;-74
2021/07/09 08:59:06;;;;;;;;;;;;;;;24.69;57.53;101627.81;4953306;28;19932;-74
2021/07/09 09:01:45;;;;;;;;;;;;;;;24.85;55.81;101622.50;4969381;28;19922;-74
2021/07/09 09:04:11;;;;;;;;;;;;;;;25.44;56.25;101622.47;4953169;28;19971;-74
2021/07/09 09:06:36;;;;;;;;;;;;;;;25.35;55.65;101631.28;4969798;28;19921;-74
2021/07/09 09:09:12;;;;;;;;;;;;;;;25.49;54.87;101619.03;4970236;28;20299;-74
2021/07/09 09:11:38;;;;;;;;;;;;;;;25.52;54.77;101621.28;4969341;28;19914;-74
2021/07/09 09:14:20;;;;;;;;;;;;;;;25.27;54.95;101625.13;4970221;28;19914;-74
2021/07/09 09:16:45;;;;;;;;;;;;;;;25.36;56.01;101624.78;4968900;28;19925;-74
2021/07/09 09:19:11;;;;;;;;;;;;;;;25.08;54.91;101620.84;4970168;28;20249;-74
2021/07/09 09:21:36;;;;;;;;;;;;;;;25.56;52.47;101622.44;4969044;28;19914;-74
2021/07/09 09:24:02;;;;;;;;;;;;;;;25.27;53.57;101618.84;4953072;28;19943;-74
2021/07/09 09:26:42;;;;;;;;;;;;;;;25.10;52.40;101618.72;4969743;28;20013;-74
2021/07/09 09:29:14;;;;;;;;;;;;;;;25.30;52.81;101617.53;4969801;28;20361;-74
2021/07/09 09:31:40;;;;;;;;;;;;;;;25.72;52.70;101615.41;4968904;28;19953;-74
2021/07/09 09:34:06;;;;;;;;;;;;;;;25.89;52.34;101610.00;4969815;28;20371;-74
2021/07/09 09:36:32;;;;;;;;;;;;;;;26.07;48.77;101601.59;4968621;28;19914;-74
2021/07/09 09:39:02;;;;;;;;;;;;;;;26.23;48.74;101607.38;4968989;28;20402;-75
2021/07/09 09:41:28;;;;;;;;;;;;;;;26.10;50.51;101612.06;4968763;28;20259;-74
2021/07/09 09:43:53;;;;;;;;;;;;;;;25.90;50.94;101603.50;4968885;28;19914;-74
2021/07/09 09:46:27;;;;;;;;;;;;;;;26.02;50.29;101606.16;4968535;28;19922;-74
2021/07/09 09:48:52;;;;;;;;;;;;;;;25.96;48.86;101610.69;4968940;28;20399;-74
2021/07/09 09:51:22;;;;;;;;;;;;;;;25.56;47.69;101603.31;4969799;28;20063;-74
2021/07/09 09:53:50;;;;;;;;;;;;;;;25.96;47.26;101607.97;4969695;28;19925;-74
2021/07/09 09:56:15;;;;;;;;;;;;;;;25.59;48.96;101605.59;4954197;28;19918;-74
2021/07/09 09:58:40;;;;;;;;;;;;;;;25.89;47.41;101612.75;4972120;28;19918;-73
2021/07/09 10:01:05;;;;;;;;;;;;;;;25.35;47.03;101610.25;4972156;28;19918;-74
2021/07/09 10:03:31;;;;;;;;;;;;;;;25.27;48.16;101602.44;4955907;28;20339;-74
2021/07/09 10:05:59;;;;;;;;;;;;;;;25.34;47.66;101603.13;4972675;28;20307;-74
2021/07/09 10:08:24;;;;;;;;;;;;;;;26.14;45.75;101597.91;4972747;28;19918;-73
2021/07/09 10:10:50;;;;;;;;;;;;;;;26.67;44.14;101605.69;4972689;28;19929;-74
2021/07/09 10:13:17;;;;;;;;;;;;;;;26.99;42.18;101604.25;4955749;28;19922;-73
2021/07/09 10:15:43;;;;;;;;;;;;;;;27.75;40.77;101607.19;4972736;28;20009;-74
2021/07/09 10:18:12;;;;;;;;;;;;;;;28.32;37.74;101603.94;4971551;28;19967;-73
2021/07/09 10:20:37;;;;;;;;;;;;;;;27.30;40.10;101605.53;4971781;28;19932;-74
2021/07/09 10:23:02;;;;;;;;;;;;;;;27.06;40.85;101596.66;4972695;28;19910;-74
2021/07/09 10:25:29;;;;;;;;;;;;;;;26.79;41.98;101599.31;4971558;28;19918;-73
2021/07/09 10:27:54;;;;;;;;;;;;;;;26.42;42.81;101589.63;4972207;28;19918;-74
2021/07/09 10:30:20;;;;;;;;;;;;;;;25.68;42.19;101586.88;4971607;28;19932;-74
2021/07/09 10:32:48;;;;;;;;;;;;;;;25.91;45.90;101580.50;4971676;28;19918;-73
2021/07/09 10:35:32;;;;;;;;;;;;;;;25.93;46.10;101588.47;4972516;28;20378;-74
2021/07/09 10:38:08;;;;;;;;;;;;;;;26.05;44.24;101584.59;4954921;28;19914;-73
2021/07/09 10:40:33;;;;;;;;;;;;;;;26.02;44.66;101574.16;4955420;28;20013;-74
2021/07/09 10:43:00;;;;;;;;;;;;;;;25.93;43.44;101578.38;4972246;28;20012;-74
2021/07/09 10:45:25;;;;;;;;;;;;;;;25.55;46.93;101582.53;4971378;28;20398;-73
2021/07/09 10:48:03;;;;;;;;;;;;;;;25.49;43.66;101572.56;4970987;28;20088;-74
2021/07/09 10:50:45;;;;;;;;;;;;;;;25.66;44.00;101570.72;4972100;28;19918;-74
2021/07/09 10:53:10;;;;;;;;;;;;;;;25.68;44.78;101576.78;4971243;28;19952;-73
2021/07/09 10:55:39;;;;;;;;;;;;;;;26.22;44.40;101578.34;4971271;28;19918;-74
2021/07/09 10:58:08;;;;;;;;;;;;;;;26.11;42.96;101575.44;4971028;28;19921;-74
2021/07/09 11:00:44;;;;;;;;;;;;;;;26.53;41.62;101577.78;4971121;28;19914;-74
2021/07/09 11:03:10;;;;;;;;;;;;;;;27.01;37.87;101566.47;4971167;28;19922;-74
2021/07/09 11:05:44;;;;;;;;;;;;;;;27.17;40.43;101571.88;4971140;28;20051;-74
2021/07/09 11:08:28;;;;;;;;;;;;;;;26.42;43.37;101569.66;4969469;28;20009;-73
2021/07/09 11:10:57;;;;;;;;;;;;;;;26.15;43.29;101569.44;4971987;28;19937;-74
2021/07/09 11:13:46;;;;;;;;;;;;;;;25.74;43.46;101572.25;4970846;28;19921;-74
2021/07/09 11:16:18;;;;;;;;;;;;;;;25.15;40.71;101566.91;4970631;28;19933;-74
2021/07/09 11:19:05;;;;;;;;;;;;;;;25.32;41.96;101567.00;4971714;28;19979;-74
2021/07/09 11:21:30;;;;;;;;;;;;;;;25.31;43.40;101564.50;4954561;28;19929;-74
2021/07/09 11:24:03;;;;;;;;;;;;;;;25.29;45.41;101564.78;4970782;28;19929;-74
2021/07/09 11:26:29;;;;;;;;;;;;;;;25.03;46.02;101568.81;4971468;28;19929;-75
2021/07/09 11:28:57;;;;;;;;;;;;;;;24.71;44.79;101565.63;4970869;28;19910;-75
2021/07/09 11:31:29;;;;;;;;;;;;;;;24.80;46.33;101567.75;4954682;28;19914;-74
2021/07/09 11:34:13;;;;;;;;;;;;;;;24.73;46.73;101564.31;4970645;28;19913;-75
2021/07/09 11:36:42;;;;;;;;;;;;;;;24.55;46.25;101558.97;4971321;28;19925;-74
2021/07/09 11:39:08;;;;;;;;;;;;;;;24.32;48.00;101562.44;4969278;28;19925;-74
2021/07/09 11:41:45;;;;;;;;;;;;;;;24.16;48.73;101558.50;4968940;28;20314;-75
2021/07/09 11:44:10;;;;;;;;;;;;;;;23.82;48.86;101560.88;4969989;28;20377;-75
2021/07/09 11:46:36;;;;;;;;;;;;;;;23.70;49.93;101557.25;4952186;28;20009;-75
2021/07/09 11:49:01;;;;;;;;;;;;;;;23.51;51.45;101553.72;4969780;28;20317;-75
2021/07/09 11:51:26;;;;;;;;;;;;;;;23.59;51.79;101556.13;4952666;28;20339;-75
2021/07/09 11:54:07;;;;;;;;;;;;;;;23.37;52.25;101551.16;4953511;28;19967;-75
2021/07/09 11:56:41;;;;;;;;;;;;;;;23.58;52.01;101549.03;4970979;28;19915;-75
2021/07/09 11:59:17;;;;;;;;;;;;;;;23.71;51.22;101543.38;4969983;28;19976;-75
2021/07/09 12:01:42;;;;;;;;;;;;;;;23.13;50.76;101547.47;4971126;28;20339;-75
2021/07/09 12:04:08;;;;;;;;;;;;;;;23.27;47.24;101539.13;4971193;28;19967;-75
2021/07/09 12:06:33;;;;;;;;;;;;;;;22.88;48.10;101536.59;4969785;28;20258;-75
2021/07/09 12:08:58;;;;;;;;;;;;;;;23.24;48.02;101539.59;4970241;28;19914;-75
2021/07/09 12:11:24;;;;;;;;;;;;;;;23.18;48.53;101536.72;4970077;28;20323;-75
2021/07/09 12:14:03;;;;;;;;;;;;;;;23.14;48.93;101534.69;4953887;28;19928;-74
2021/07/09 12:16:28;;;;;;;;;;;;;;;23.27;46.68;101533.69;4969714;28;19914;-75
2021/07/09 12:18:53;;;;;;;;;;;;;;;23.39;48.10;101529.16;4970567;28;20409;-75
2021/07/09 12:21:18;;;;;;;;;;;;;;;23.30;48.71;101533.25;4969971;28;20012;-75
2021/07/09 12:23:44;;;;;;;;;;;;;;;23.12;48.27;101531.34;4969886;28;19914;-75
2021/07/09 12:26:09;;;;;;;;;;;;;;;23.57;47.49;101529.09;4969422;28;20065;-75
2021/07/09 12:28:35;;;;;;;;;;;;;;;23.80;46.96;101525.66;4953631;28;20319;-75
2021/07/09 12:31:02;;;;;;;;;;;;;;;23.66;49.12;101528.78;4968422;28;20028;-75
2021/07/09 12:33:38;;;;;;;;;;;;;;;23.57;47.88;101520.91;4967784;28;19914;-75